Time;durP1;ratioP1;P1;durP2;ratioP2;P2;SDS_P1;SDS_P2;PMS_P1;PMS_P2;Temp;Humidity;BMP_temperature;BMP_pressure;BME280_temperature;BME280_humidity;BME280_pressure;Samples;Min_cycle;Max_cycle;Signal;HPM_P1;HPM_P2
2021/10/24 00:01:35;;;;;;;0.90;0.70;;;;;;;5.31;82.48;97329.06;5037954;28;20229;-70
2021/10/24 00:04:01;;;;;;;1.07;0.80;;;;;;;5.09;83.04;97329.03;5037815;28;20263;-70
2021/10/24 00:06:28;;;;;;;4.47;1.07;;;;;;;5.08;83.48;97328.22;5036738;28;20796;-71
2021/10/24 00:08:55;;;;;;;1.37;1.07;;;;;;;4.92;83.44;97327.72;5037315;28;20205;-70
2021/10/24 00:11:21;;;;;;;9.70;1.20;;;;;;;5.03;83.91;97325.13;5037890;28;20582;-70
2021/10/24 00:13:47;;;;;;;3.30;1.33;;;;;;;5.11;82.04;97325.38;5038046;28;20701;-71
2021/10/24 00:16:14;;;;;;;2.83;1.53;;;;;;;4.90;84.03;97319.19;5036339;28;20232;-70
2021/10/24 00:18:42;;;;;;;1.43;1.13;;;;;;;5.05;84.80;97322.41;5037989;28;20212;-71
2021/10/24 00:21:08;;;;;;;0.93;0.93;;;;;;;5.05;83.83;97317.16;5034362;28;20201;-71
2021/10/24 00:23:35;;;;;;;0.90;0.90;;;;;;;5.05;82.93;97309.34;5036415;28;20229;-71
2021/10/24 00:26:01;;;;;;;1.33;1.13;;;;;;;5.19;81.38;97315.16;5036297;28;20330;-70
2021/10/24 00:28:28;;;;;;;1.93;1.43;;;;;;;5.01;82.54;97311.34;5037823;28;20776;-71
2021/10/24 00:30:54;;;;;;;2.63;1.37;;;;;;;5.00;82.99;97314.94;5037157;28;21120;-71
2021/10/24 00:33:22;;;;;;;2.10;1.70;;;;;;;4.64;82.08;97309.03;5037544;28;20219;-70
2021/10/24 00:35:50;;;;;;;1.17;1.07;;;;;;;4.93;80.98;97311.09;5036993;28;20324;-70
2021/10/24 00:38:17;;;;;;;0.90;0.70;;;;;;;4.80;81.52;97306.94;5036699;28;20209;-71
2021/10/24 00:40:44;;;;;;;0.70;0.70;;;;;;;4.84;83.04;97309.19;5037004;28;20213;-70
2021/10/24 00:43:10;;;;;;;0.63;0.63;;;;;;;4.57;81.59;97307.00;5038256;28;20243;-71
2021/10/24 00:45:37;;;;;;;1.70;0.80;;;;;;;4.30;81.02;97314.25;5035737;28;20220;-70
2021/10/24 00:48:03;;;;;;;0.50;0.50;;;;;;;4.47;80.38;97308.66;5036456;28;20216;-71
2021/10/24 00:50:30;;;;;;;1.90;1.00;;;;;;;4.52;80.94;97311.72;5037741;28;20205;-70
2021/10/24 00:53:00;;;;;;;1.00;0.83;;;;;;;4.54;82.15;97305.44;5036983;28;20661;-71
2021/10/24 00:55:26;;;;;;;0.57;0.57;;;;;;;4.30;80.98;97306.44;5036344;28;20224;-70
2021/10/24 00:57:54;;;;;;;4.90;0.97;;;;;;;4.32;81.46;97296.72;5036764;28;20208;-69
2021/10/24 01:00:20;;;;;;;0.40;0.40;;;;;;;4.46;81.39;97291.31;5037324;28;20232;-70
2021/10/24 01:02:47;;;;;;;1.20;0.83;;;;;;;4.55;82.02;97291.44;5036571;28;20225;-70
2021/10/24 01:05:15;;;;;;;1.03;1.00;;;;;;;4.50;83.08;97295.38;5036556;28;20212;-70
2021/10/24 01:07:45;;;;;;;2.93;1.57;;;;;;;4.64;83.32;97292.56;5036072;28;20273;-70
2021/10/24 01:10:15;;;;;;;1.80;0.90;;;;;;;4.75;81.71;97287.34;5036838;28;20201;-70
2021/10/24 01:12:43;;;;;;;0.90;0.80;;;;;;;4.66;80.28;97290.63;5036707;28;20197;-71
2021/10/24 01:15:10;;;;;;;1.30;0.97;;;;;;;4.44;81.40;97281.00;5036755;28;20200;-70
2021/10/24 01:17:36;;;;;;;1.83;1.30;;;;;;;4.52;82.20;97280.41;5035733;28;20212;-71
2021/10/24 01:20:04;;;;;;;1.40;0.90;;;;;;;4.52;81.36;97283.88;5034367;28;20208;-71
2021/10/24 01:22:35;;;;;;;1.13;1.03;;;;;;;4.78;81.29;97281.91;5036960;28;20239;-71
2021/10/24 01:25:02;;;;;;;1.27;0.77;;;;;;;4.34;81.86;97272.19;5036793;28;20208;-70
2021/10/24 01:27:28;;;;;;;0.80;0.80;;;;;;;4.22;81.94;97269.66;5035598;28;20282;-71
2021/10/24 01:29:55;;;;;;;1.20;1.03;;;;;;;4.23;79.73;97263.50;5036598;28;20693;-71
2021/10/24 01:32:21;;;;;;;0.73;0.73;;;;;;;4.35;79.86;97262.56;5036753;28;20213;-71
2021/10/24 01:34:49;;;;;;;0.80;0.80;;;;;;;4.57;80.48;97257.41;5036112;28;20201;-70
2021/10/24 01:37:16;;;;;;;0.90;0.73;;;;;;;4.40;81.37;97263.06;5039908;28;20221;-70
2021/10/24 01:39:44;;;;;;;1.17;1.07;;;;;;;4.64;81.04;97269.06;5041252;28;20205;-71
2021/10/24 01:42:11;;;;;;;1.93;1.13;;;;;;;4.30;81.42;97254.25;5040290;28;20729;-71
2021/10/24 01:44:38;;;;;;;2.00;0.70;;;;;;;4.39;80.39;97254.41;5040512;28;20208;-71
2021/10/24 01:47:04;;;;;;;2.23;1.57;;;;;;;4.41;80.11;97254.31;5039889;28;20228;-71
2021/10/24 01:49:31;;;;;;;4.90;1.23;;;;;;;4.45;80.67;97253.13;5040288;28;20204;-71
2021/10/24 01:52:01;;;;;;;3.30;0.90;;;;;;;4.78;81.19;97251.38;5039813;28;20218;-71
2021/10/24 01:54:27;;;;;;;1.43;1.33;;;;;;;4.50;81.25;97251.00;5041336;28;20215;-71
2021/10/24 01:56:55;;;;;;;1.70;1.60;;;;;;;4.53;83.16;97250.75;5039796;28;20810;-71
2021/10/24 01:59:22;;;;;;;2.00;1.77;;;;;;;4.55;82.31;97246.25;5040730;28;20231;-71
2021/10/24 02:01:48;;;;;;;0.93;0.83;;;;;;;4.53;83.24;97243.78;5040145;28;20240;-71
2021/10/24 02:04:15;;;;;;;1.10;0.97;;;;;;;4.39;83.96;97240.53;5037469;28;20244;-70
2021/10/24 02:06:42;;;;;;;3.40;1.90;;;;;;;4.52;82.08;97242.09;5038950;28;20732;-70
2021/10/24 02:09:08;;;;;;;1.00;1.00;;;;;;;4.43;81.64;97241.94;5039979;28;20208;-71
2021/10/24 02:11:35;;;;;;;1.30;0.97;;;;;;;4.38;81.27;97237.09;5040077;28;20208;-71
2021/10/24 02:14:03;;;;;;;1.10;1.00;;;;;;;4.68;81.72;97234.75;5039729;28;20219;-71
2021/10/24 02:16:29;;;;;;;1.43;1.23;;;;;;;4.49;83.06;97237.13;5039016;28;20731;-71
2021/10/24 02:18:56;;;;;;;1.97;1.40;;;;;;;4.52;82.57;97230.81;5039607;28;20205;-71
2021/10/24 02:21:22;;;;;;;2.60;1.60;;;;;;;4.16;83.11;97230.16;5037975;28;20212;-71
2021/10/24 02:23:49;;;;;;;0.80;0.80;;;;;;;4.16;81.00;97230.16;5039690;28;20229;-71
2021/10/24 02:26:15;;;;;;;2.73;2.03;;;;;;;4.26;80.41;97224.13;5039466;28;20603;-71
2021/10/24 02:28:42;;;;;;;1.90;1.37;;;;;;;4.24;80.57;97223.44;5039944;28;20212;-71
2021/10/24 02:31:10;;;;;;;1.93;1.63;;;;;;;4.38;82.16;97212.78;5039559;28;20201;-70
2021/10/24 02:33:36;;;;;;;1.53;1.43;;;;;;;4.35;81.43;97215.63;5039899;28;20201;-70
2021/10/24 02:36:03;;;;;;;2.27;1.97;;;;;;;4.23;80.58;97216.53;5038948;28;20225;-71
2021/10/24 02:38:29;;;;;;;3.23;1.87;;;;;;;4.26;81.40;97204.13;5039492;28;20205;-71
2021/10/24 02:40:56;;;;;;;2.87;2.17;;;;;;;4.12;80.57;97210.47;5039681;28;20205;-71
2021/10/24 02:43:23;;;;;;;0.83;0.83;;;;;;;4.19;79.33;97211.66;5039516;28;20255;-70
2021/10/24 02:45:49;;;;;;;1.60;1.10;;;;;;;4.25;79.72;97204.19;5038545;28;20595;-71
2021/10/24 02:48:17;;;;;;;1.53;1.20;;;;;;;4.44;80.35;97212.31;5037858;28;20213;-71
2021/10/24 02:50:43;;;;;;;3.00;2.20;;;;;;;4.21;80.30;97209.78;5039351;28;20219;-71
2021/10/24 02:53:10;;;;;;;1.27;1.13;;;;;;;4.19;80.95;97204.69;5039316;28;20569;-70
2021/10/24 02:55:36;;;;;;;0.93;0.70;;;;;;;4.23;80.14;97211.31;5038872;28;20228;-71
2021/10/24 02:58:03;;;;;;;0.90;0.70;;;;;;;3.98;79.13;97205.44;5039396;28;20197;-71
2021/10/24 03:00:30;;;;;;;1.07;0.97;;;;;;;3.93;78.30;97207.56;5039066;28;20204;-70
2021/10/24 03:02:56;;;;;;;0.67;0.67;;;;;;;3.92;78.34;97211.09;5039149;28;20224;-71
2021/10/24 03:05:24;;;;;;;0.93;0.90;;;;;;;4.07;79.63;97209.97;5038235;28;20209;-70
2021/10/24 03:07:51;;;;;;;3.53;1.50;;;;;;;3.87;80.81;97208.00;5040115;28;20208;-71
2021/10/24 03:10:17;;;;;;;2.87;1.47;;;;;;;3.87;78.96;97208.84;5039027;28;20300;-71
2021/10/24 03:12:44;;;;;;;2.30;0.97;;;;;;;3.77;77.50;97202.66;5038831;28;20208;-70
2021/10/24 03:15:11;;;;;;;1.57;1.33;;;;;;;3.78;77.90;97208.69;5039236;28;20197;-70
2021/10/24 03:17:38;;;;;;;1.27;1.17;;;;;;;3.71;78.01;97207.47;5038605;28;20208;-70
2021/10/24 03:20:05;;;;;;;2.20;1.40;;;;;;;3.80;78.25;97201.59;5036426;28;20745;-70
2021/10/24 03:22:34;;;;;;;1.13;1.07;;;;;;;3.81;80.13;97204.09;5038908;28;20216;-70
2021/10/24 03:25:00;;;;;;;14.10;1.40;;;;;;;3.63;80.72;97207.22;5039110;28;20920;-71
2021/10/24 03:27:27;;;;;;;1.17;1.07;;;;;;;3.74;79.58;97207.25;5038717;28;20247;-70
2021/10/24 03:29:53;;;;;;;3.20;1.17;;;;;;;3.73;79.00;97211.63;5039164;28;20216;-70
2021/10/24 03:32:20;;;;;;;2.63;1.30;;;;;;;3.50;78.88;97216.88;5038866;28;21608;-70
2021/10/24 03:34:46;;;;;;;2.20;1.53;;;;;;;3.45;78.02;97210.31;5038498;28;20204;-70
2021/10/24 03:37:13;;;;;;;1.07;0.93;;;;;;;3.25;79.00;97218.72;5037417;28;20225;-70
2021/10/24 03:39:41;;;;;;;2.47;1.20;;;;;;;3.70;79.20;97209.28;5038987;28;20208;-70
2021/10/24 03:42:07;;;;;;;1.63;1.07;;;;;;;3.64;79.25;97214.91;5038485;28;20196;-70
2021/10/24 03:44:34;;;;;;;4.67;1.43;;;;;;;3.53;79.11;97213.22;5038386;28;20263;-70
2021/10/24 03:47:00;;;;;;;1.10;0.90;;;;;;;3.53;79.04;97224.47;5037923;28;20226;-70
2021/10/24 03:49:27;;;;;;;1.90;1.80;;;;;;;3.67;79.00;97221.69;5038706;28;20205;-70
2021/10/24 03:51:53;;;;;;;2.60;0.80;;;;;;;3.53;77.73;97216.63;5038681;28;20216;-69
2021/10/24 03:54:20;;;;;;;1.63;1.53;;;;;;;3.54;78.99;97214.84;5038557;28;20210;-70
2021/10/24 03:56:48;;;;;;;2.20;2.00;;;;;;;3.76;79.84;97215.81;5037619;28;20231;-70
2021/10/24 03:59:14;;;;;;;1.33;1.20;;;;;;;3.46;79.69;97211.97;5038088;28;20242;-70
2021/10/24 04:01:41;;;;;;;2.33;1.57;;;;;;;3.43;80.24;97210.41;5038423;28;20634;-70
2021/10/24 04:04:07;;;;;;;1.67;1.20;;;;;;;3.58;78.96;97224.97;5038112;28;20232;-70
2021/10/24 04:06:34;;;;;;;1.73;1.60;;;;;;;3.52;77.82;97224.56;5037286;28;20755;-70
2021/10/24 04:09:01;;;;;;;1.27;0.80;;;;;;;3.56;77.11;97224.22;5038679;28;20232;-70
2021/10/24 04:11:27;;;;;;;0.53;0.53;;;;;;;3.50;77.06;97219.47;5038400;28;20208;-70
2021/10/24 04:13:55;;;;;;;1.93;1.27;;;;;;;3.67;77.84;97221.69;5037962;28;20203;-69
2021/10/24 04:16:22;;;;;;;2.73;1.53;;;;;;;3.43;78.21;97218.22;5037253;28;20235;-70
2021/10/24 04:18:48;;;;;;;0.90;0.90;;;;;;;3.43;78.75;97217.41;5038918;28;20211;-70
2021/10/24 04:21:15;;;;;;;1.50;1.40;;;;;;;3.15;78.35;97212.50;5035085;28;20331;-70
2021/10/24 04:23:42;;;;;;;5.87;1.00;;;;;;;3.13;78.09;97216.97;5037896;28;20596;-70
2021/10/24 04:26:09;;;;;;;1.10;1.07;;;;;;;3.08;77.72;97216.47;5037053;28;20281;-69
2021/10/24 04:28:35;;;;;;;1.10;0.80;;;;;;;3.18;77.39;97220.94;5038081;28;21013;-70
2021/10/24 04:31:03;;;;;;;1.43;1.10;;;;;;;3.48;77.20;97210.09;5037654;28;20205;-70
2021/10/24 04:33:30;;;;;;;3.90;1.43;;;;;;;3.16;77.76;97209.78;5038163;28;20211;-70
2021/10/24 04:35:56;;;;;;;1.00;1.00;;;;;;;3.19;79.84;97204.34;5037012;28;20224;-70
2021/10/24 04:38:23;;;;;;;1.17;1.17;;;;;;;3.27;79.73;97207.25;5037865;28;20221;-70
2021/10/24 04:40:49;;;;;;;2.20;1.10;;;;;;;3.32;79.80;97214.75;5037894;28;20214;-70
2021/10/24 04:43:17;;;;;;;1.60;1.50;;;;;;;3.09;79.96;97219.00;5037528;28;20611;-70
2021/10/24 04:45:43;;;;;;;1.67;1.57;;;;;;;3.09;79.89;97207.72;5036783;28;20225;-70
2021/10/24 04:48:11;;;;;;;9.43;1.40;;;;;;;3.32;79.57;97209.53;5037644;28;20200;-70
2021/10/24 04:50:38;;;;;;;2.17;1.77;;;;;;;3.07;80.46;97214.81;5037787;28;20208;-70
2021/10/24 04:53:06;;;;;;;5.53;1.20;;;;;;;3.34;80.97;97215.47;5037439;28;20208;-70
2021/10/24 04:55:33;;;;;;;1.23;1.17;;;;;;;3.28;80.41;97206.31;5036778;28;20232;-70
2021/10/24 04:57:59;;;;;;;2.33;1.33;;;;;;;3.23;79.93;97211.03;5037447;28;20828;-71
2021/10/24 05:00:26;;;;;;;1.37;1.27;;;;;;;3.23;79.45;97210.19;5037306;28;20213;-70
2021/10/24 05:02:52;;;;;;;4.67;1.33;;;;;;;3.18;79.17;97207.06;5037445;28;20204;-70
2021/10/24 05:05:20;;;;;;;2.47;2.00;;;;;;;3.28;78.93;97205.47;5037275;28;20226;-71
2021/10/24 05:07:47;;;;;;;1.30;0.97;;;;;;;2.93;78.67;97212.38;5036562;28;20220;-70
2021/10/24 05:10:13;;;;;;;2.20;1.47;;;;;;;3.00;78.75;97213.56;5036747;28;20208;-70
2021/10/24 05:12:40;;;;;;;1.57;1.17;;;;;;;2.84;80.17;97212.16;5037000;28;20216;-70
2021/10/24 05:15:08;;;;;;;1.27;1.17;;;;;;;2.94;80.54;97214.03;5037816;28;20211;-70
2021/10/24 05:17:35;;;;;;;0.83;0.83;;;;;;;2.93;79.69;97214.13;5036543;28;20255;-70
2021/10/24 05:20:01;;;;;;;2.13;1.77;;;;;;;2.85;80.18;97204.25;5034392;28;20205;-70
2021/10/24 05:22:29;;;;;;;1.10;1.10;;;;;;;3.14;79.92;97203.03;5037584;28;20205;-70
2021/10/24 05:24:56;;;;;;;1.20;1.10;;;;;;;2.83;81.83;97219.16;5036891;28;20771;-69
2021/10/24 05:27:23;;;;;;;1.77;1.63;;;;;;;2.75;82.49;97218.84;5036420;28;20227;-70
2021/10/24 05:29:49;;;;;;;2.30;1.20;;;;;;;2.89;82.04;97210.91;5038006;28;20224;-70
2021/10/24 05:32:16;;;;;;;2.50;1.87;;;;;;;2.69;79.62;97218.44;5037109;28;20296;-70
2021/10/24 05:34:43;;;;;;;1.43;1.10;;;;;;;2.81;78.92;97212.38;5035200;28;20203;-70
2021/10/24 05:37:10;;;;;;;0.87;0.80;;;;;;;2.97;79.07;97208.59;5036542;28;20786;-71
2021/10/24 05:39:38;;;;;;;1.50;1.23;;;;;;;2.96;78.94;97200.91;5038121;28;20208;-71
2021/10/24 05:42:05;;;;;;;2.63;1.13;;;;;;;2.76;78.39;97209.25;5038212;28;20205;-71
2021/10/24 05:44:32;;;;;;;1.13;1.03;;;;;;;2.89;78.30;97205.72;5038221;28;20231;-71
2021/10/24 05:46:58;;;;;;;2.60;1.00;;;;;;;2.84;78.59;97213.00;5037235;28;20229;-71
2021/10/24 05:49:25;;;;;;;1.67;0.93;;;;;;;2.85;78.19;97209.47;5038074;28;20205;-71
2021/10/24 05:51:52;;;;;;;1.80;1.20;;;;;;;2.88;77.30;97211.00;5038101;28;20673;-71
2021/10/24 05:54:18;;;;;;;1.17;1.07;;;;;;;2.83;77.43;97203.53;5038459;28;20205;-71
2021/10/24 05:56:46;;;;;;;1.80;1.33;;;;;;;2.95;78.03;97199.22;5037189;28;20229;-71
2021/10/24 05:59:13;;;;;;;3.13;1.10;;;;;;;2.78;78.44;97210.81;5038100;28;20616;-71
2021/10/24 06:01:39;;;;;;;0.90;0.87;;;;;;;2.84;79.65;97197.38;5038330;28;20209;-71
2021/10/24 06:04:06;;;;;;;2.00;1.67;;;;;;;2.87;79.13;97202.38;5038020;28;20756;-72
2021/10/24 06:06:32;;;;;;;0.67;0.57;;;;;;;2.81;79.88;97192.38;5036992;28;20237;-71
2021/10/24 06:09:01;;;;;;;4.40;2.40;;;;;;;2.68;79.04;97207.19;5038204;28;20215;-71
2021/10/24 06:11:33;;;;;;;0.77;0.77;;;;;;;2.75;77.93;97211.03;5038220;28;20219;-71
2021/10/24 06:14:01;;;;;;;2.20;1.47;;;;;;;2.95;77.70;97207.88;5037812;28;20231;-71
2021/10/24 06:16:28;;;;;;;2.63;1.33;;;;;;;2.85;78.03;97206.88;5037655;28;20232;-71
2021/10/24 06:18:55;;;;;;;2.53;2.10;;;;;;;2.91;79.22;97208.19;5037101;28;20207;-71
2021/10/24 06:21:21;;;;;;;26.07;1.20;;;;;;;2.87;80.22;97219.78;5035728;28;20215;-71
2021/10/24 06:23:48;;;;;;;3.60;1.50;;;;;;;2.84;80.57;97207.78;5041875;28;20221;-71
2021/10/24 06:26:14;;;;;;;1.30;1.07;;;;;;;2.61;81.10;97215.50;5040484;28;20233;-71
2021/10/24 06:28:41;;;;;;;0.70;0.70;;;;;;;2.72;80.61;97215.63;5041077;28;20210;-71
2021/10/24 06:31:09;;;;;;;2.10;1.17;;;;;;;3.02;80.57;97214.31;5041339;28;20211;-71
2021/10/24 06:33:35;;;;;;;1.30;1.20;;;;;;;2.81;81.94;97218.41;5040831;28;20204;-71
2021/10/24 06:36:02;;;;;;;0.90;0.67;;;;;;;2.96;81.53;97216.53;5040333;28;20228;-71
2021/10/24 06:38:28;;;;;;;3.13;2.00;;;;;;;2.82;81.63;97227.88;5041167;28;20205;-71
2021/10/24 06:40:55;;;;;;;1.20;1.10;;;;;;;2.76;81.34;97230.94;5040993;28;20292;-71
2021/10/24 06:43:21;;;;;;;2.20;1.80;;;;;;;2.81;82.98;97223.59;5041120;28;20201;-71
2021/10/24 06:45:48;;;;;;;2.33;1.33;;;;;;;3.01;83.74;97225.66;5040353;28;20729;-71
2021/10/24 06:48:16;;;;;;;1.70;1.37;;;;;;;3.32;83.11;97222.56;5040210;28;20212;-71
2021/10/24 06:50:42;;;;;;;2.37;1.60;;;;;;;3.15;85.37;97221.13;5039966;28;20209;-70
2021/10/24 06:53:09;;;;;;;2.63;1.57;;;;;;;3.16;84.04;97235.00;5039980;28;20685;-71
2021/10/24 06:55:36;;;;;;;6.70;1.97;;;;;;;3.36;83.27;97231.81;5039342;28;20236;-71
2021/10/24 06:58:03;;;;;;;1.70;1.13;;;;;;;3.56;83.46;97228.63;5039667;28;20573;-71
2021/10/24 07:00:30;;;;;;;3.50;2.90;;;;;;;3.49;83.87;97236.03;5040070;28;20569;-71
2021/10/24 07:02:57;;;;;;;2.57;1.40;;;;;;;3.68;84.15;97239.81;5039284;28;20810;-71
2021/10/24 07:05:26;;;;;;;1.27;1.13;;;;;;;3.90;84.15;97239.09;5039657;28;20225;-71
2021/10/24 07:07:53;;;;;;;1.13;1.03;;;;;;;3.75;84.04;97237.59;5039403;28;20212;-71
2021/10/24 07:10:20;;;;;;;1.67;1.57;;;;;;;3.80;84.04;97233.69;5039968;28;20205;-71
2021/10/24 07:12:51;;;;;;;8.00;2.77;;;;;;;3.94;84.62;97235.31;5039685;28;20212;-71
2021/10/24 07:15:19;;;;;;;2.83;2.57;;;;;;;4.02;85.97;97239.03;5039416;28;20236;-71
2021/10/24 07:17:45;;;;;;;2.37;1.93;;;;;;;4.11;84.66;97232.28;5038563;28;20208;-71
2021/10/24 07:20:13;;;;;;;4.53;1.47;;;;;;;4.39;85.15;97236.16;5038513;28;20208;-71
2021/10/24 07:22:41;;;;;;;2.07;1.37;;;;;;;4.57;84.97;97236.53;5039096;28;20311;-72
2021/10/24 07:25:08;;;;;;;3.50;2.00;;;;;;;4.50;85.56;97241.38;5038972;28;20215;-71
2021/10/24 07:27:35;;;;;;;3.70;1.63;;;;;;;4.50;86.12;97241.38;5038185;28;20312;-71
2021/10/24 07:30:02;;;;;;;5.10;2.93;;;;;;;4.55;85.74;97241.03;5039135;28;20209;-71
2021/10/24 07:32:28;;;;;;;1.47;1.40;;;;;;;4.67;85.34;97237.50;5038713;28;20208;-71
2021/10/24 07:34:56;;;;;;;2.47;2.13;;;;;;;4.66;86.71;97241.91;5038420;28;20234;-69
2021/10/24 07:37:22;;;;;;;9.50;1.73;;;;;;;4.79;85.61;97244.41;5038390;28;20590;-71
2021/10/24 07:39:50;;;;;;;1.60;0.80;;;;;;;4.98;87.02;97248.09;5038850;28;20201;-71
2021/10/24 07:42:17;;;;;;;3.13;1.13;;;;;;;4.99;86.08;97247.09;5038320;28;20212;-71
2021/10/24 07:44:43;;;;;;;3.87;2.17;;;;;;;5.13;85.05;97242.50;5038259;28;20318;-71
2021/10/24 07:47:10;;;;;;;3.00;1.43;;;;;;;5.27;84.61;97238.78;5038041;28;20217;-71
2021/10/24 07:49:37;;;;;;;1.53;1.20;;;;;;;5.22;85.92;97236.56;5038095;28;21184;-71
2021/10/24 07:52:03;;;;;;;7.70;1.87;;;;;;;5.38;85.31;97242.22;5038385;28;20212;-71
2021/10/24 07:54:30;;;;;;;3.20;1.53;;;;;;;5.30;86.04;97238.56;5038379;28;20710;-71
2021/10/24 07:56:58;;;;;;;5.77;1.27;;;;;;;5.45;86.89;97238.19;5037490;28;20259;-71
2021/10/24 07:59:25;;;;;;;1.30;1.03;;;;;;;5.40;86.91;97237.72;5038105;28;20291;-71
2021/10/24 08:01:51;;;;;;;3.40;1.67;;;;;;;5.39;87.46;97243.88;5038176;28;20208;-71
2021/10/24 08:04:18;;;;;;;4.30;1.93;;;;;;;5.63;85.62;97241.94;5038485;28;20587;-71
2021/10/24 08:06:44;;;;;;;6.00;2.43;;;;;;;5.73;86.50;97237.63;5037072;28;21000;-71
2021/10/24 08:09:12;;;;;;;10.00;2.60;;;;;;;6.08;86.26;97246.91;5037978;28;20242;-71
2021/10/24 08:11:39;;;;;;;2.53;2.33;;;;;;;6.04;85.16;97246.31;5038062;28;20206;-71
2021/10/24 08:14:08;;;;;;;3.77;1.83;;;;;;;6.35;84.88;97248.09;5037539;28;20201;-71
2021/10/24 08:16:36;;;;;;;2.53;2.00;;;;;;;6.28;84.73;97252.16;5037446;28;20221;-71
2021/10/24 08:19:03;;;;;;;3.97;1.97;;;;;;;6.40;84.31;97242.47;5038408;28;20201;-71
2021/10/24 08:21:30;;;;;;;2.87;1.83;;;;;;;6.55;85.21;97249.06;5033815;28;20213;-71
2021/10/24 08:23:56;;;;;;;2.83;2.37;;;;;;;6.41;84.61;97242.34;5037609;28;20634;-71
2021/10/24 08:26:23;;;;;;;4.33;2.67;;;;;;;6.45;85.26;97235.88;5036871;28;20225;-71
2021/10/24 08:28:51;;;;;;;2.07;1.87;;;;;;;6.50;85.06;97236.34;5037547;28;20266;-71
2021/10/24 08:31:24;;;;;;;5.07;2.27;;;;;;;6.74;85.10;97239.53;5037471;28;20679;-71
2021/10/24 08:33:52;;;;;;;12.93;2.13;;;;;;;6.47;85.11;97234.00;5036902;28;20205;-71
2021/10/24 08:36:19;;;;;;;2.13;1.40;;;;;;;6.30;85.91;97234.56;5036864;28;20283;-71
2021/10/24 08:38:45;;;;;;;2.93;2.00;;;;;;;6.42;85.91;97232.72;5037408;28;20324;-71
2021/10/24 08:41:12;;;;;;;2.03;1.73;;;;;;;6.70;85.37;97222.41;5037683;28;20200;-71
2021/10/24 08:43:40;;;;;;;4.27;2.27;;;;;;;6.57;85.55;97234.88;5037446;28;20208;-71
2021/10/24 08:46:07;;;;;;;1.83;1.60;;;;;;;6.99;85.08;97231.25;5035744;28;20240;-71
2021/10/24 08:48:35;;;;;;;2.07;1.60;;;;;;;7.47;84.20;97227.81;5037324;28;20205;-71
2021/10/24 08:51:03;;;;;;;3.43;1.50;;;;;;;7.47;83.92;97228.66;5037115;28;20205;-71
2021/10/24 08:53:30;;;;;;;4.53;2.77;;;;;;;7.63;83.37;97220.28;5037013;28;20204;-71
2021/10/24 08:55:57;;;;;;;2.97;2.37;;;;;;;7.81;81.96;97223.88;5036503;28;20982;-71
2021/10/24 08:58:24;;;;;;;3.30;2.10;;;;;;;7.84;82.98;97223.59;5036889;28;20274;-71
2021/10/24 09:00:52;;;;;;;3.70;1.93;;;;;;;8.15;82.32;97226.84;5037048;28;20582;-71
2021/10/24 09:03:18;;;;;;;3.70;2.43;;;;;;;8.17;81.24;97226.69;5037249;28;20639;-71
2021/10/24 09:05:48;;;;;;;4.20;1.53;;;;;;;8.39;81.17;97215.91;5035786;28;20225;-71
2021/10/24 09:08:16;;;;;;;2.20;1.53;;;;;;;8.59;80.54;97219.19;5036798;28;20205;-71
2021/10/24 09:10:45;;;;;;;4.20;1.97;;;;;;;8.63;79.89;97219.72;5037132;28;20205;-72
2021/10/24 09:13:14;;;;;;;3.77;1.67;;;;;;;8.46;80.18;97224.88;5036588;28;20201;-71
2021/10/24 09:16:02;;;;;;;4.53;2.00;;;;;;;8.86;79.44;97224.53;5035675;28;20251;-71
2021/10/24 09:18:33;;;;;;;2.73;2.03;;;;;;;8.69;78.95;97224.44;5036420;28;20211;-71
2021/10/24 09:21:20;;;;;;;8.23;2.73;;;;;;;9.10;79.31;97217.81;5033209;28;20209;-71
2021/10/24 09:23:48;;;;;;;3.30;2.10;;;;;;;8.68;78.72;97223.59;5037053;28;20204;-72
2021/10/24 09:26:20;;;;;;;5.80;2.20;;;;;;;8.65;78.72;97221.25;5036154;28;20248;-72
2021/10/24 09:28:57;;;;;;;7.93;1.57;;;;;;;8.89;78.44;97221.59;5036559;28;20205;-71
2021/10/24 09:31:27;;;;;;;4.07;1.93;;;;;;;8.90;78.89;97218.00;5037100;28;20208;-71
2021/10/24 09:33:55;;;;;;;2.47;1.80;;;;;;;8.62;80.73;97218.91;5036732;28;20201;-72
2021/10/24 09:36:25;;;;;;;4.43;2.87;;;;;;;8.98;79.80;97222.56;5035222;28;20313;-71
2021/10/24 09:38:52;;;;;;;3.43;2.37;;;;;;;9.10;79.64;97216.97;5036402;28;20216;-71
2021/10/24 09:41:30;;;;;;;1.87;1.53;;;;;;;9.65;77.05;97210.72;5036485;28;20213;-72
2021/10/24 09:44:08;;;;;;;3.53;2.23;;;;;;;9.65;77.69;97213.34;5036366;28;20215;-71
2021/10/24 09:46:35;;;;;;;4.90;2.50;;;;;;;9.45;77.43;97219.72;5036025;28;20300;-71
2021/10/24 09:49:02;;;;;;;4.53;1.77;;;;;;;9.53;75.83;97209.28;5037454;28;20205;-72
2021/10/24 09:51:35;;;;;;;4.67;1.60;;;;;;;10.08;75.85;97209.91;5036089;28;20220;-72
2021/10/24 09:54:16;;;;;;;2.30;1.73;;;;;;;9.86;77.29;97210.34;5035796;28;20205;-72
2021/10/24 09:56:43;;;;;;;6.03;2.93;;;;;;;10.09;77.35;97201.00;5037480;28;20235;-72
2021/10/24 09:59:11;;;;;;;2.63;1.67;;;;;;;10.28;76.52;97197.41;5040287;28;20201;-72
2021/10/24 10:01:37;;;;;;;2.20;1.77;;;;;;;10.22;76.85;97205.91;5039981;28;20201;-72
2021/10/24 10:04:05;;;;;;;2.43;1.87;;;;;;;10.51;76.09;97202.03;5040591;28;20208;-72
2021/10/24 10:06:33;;;;;;;3.80;2.17;;;;;;;10.03;74.58;97200.78;5039451;28;20236;-72
2021/10/24 10:09:00;;;;;;;4.23;2.47;;;;;;;10.34;74.62;97200.25;5040122;28;20201;-72
2021/10/24 10:11:31;;;;;;;3.20;1.80;;;;;;;10.33;74.79;97194.19;5040165;28;20674;-72
2021/10/24 10:14:01;;;;;;;2.53;1.53;;;;;;;10.67;72.94;97194.28;5040675;28;20208;-71
2021/10/24 10:16:33;;;;;;;2.97;1.80;;;;;;;10.96;72.71;97190.34;5039040;28;20240;-72
2021/10/24 10:19:01;;;;;;;5.77;2.87;;;;;;;10.79;72.12;97182.47;5039871;28;20292;-72
2021/10/24 10:21:32;;;;;;;3.40;2.43;;;;;;;10.95;73.54;97186.03;5036819;28;20227;-72
2021/10/24 10:24:00;;;;;;;4.27;1.73;;;;;;;11.26;71.69;97174.81;5039492;28;20840;-72
2021/10/24 10:26:35;;;;;;;5.23;3.33;;;;;;;10.86;72.85;97180.84;5039009;28;20217;-72
2021/10/24 10:29:03;;;;;;;8.03;1.97;;;;;;;10.39;74.12;97187.47;5039786;28;20240;-71
2021/10/24 10:31:29;;;;;;;9.20;2.20;;;;;;;10.75;72.84;97175.84;5039620;28;20220;-72
2021/10/24 10:34:01;;;;;;;7.77;2.37;;;;;;;11.08;71.47;97173.25;5039844;28;20324;-70
2021/10/24 10:36:57;;;;;;;4.67;2.50;;;;;;;11.42;70.73;97168.75;5038647;28;20732;-70
2021/10/24 10:39:41;;;;;;;2.87;1.93;;;;;;;11.13;72.66;97173.59;5039317;28;20205;-71
2021/10/24 10:42:45;;;;;;;6.03;2.00;;;;;;;11.71;72.45;97164.75;5039553;28;20284;-70
2021/10/24 10:45:37;;;;;;;2.93;1.77;;;;;;;11.43;72.94;97160.72;5038937;28;20201;-70
2021/10/24 10:48:06;;;;;;;5.73;2.60;;;;;;;11.27;72.75;97157.19;5038874;28;20296;-70
2021/10/24 10:50:47;;;;;;;3.40;2.10;;;;;;;11.43;71.75;97166.00;5039967;28;20205;-70
2021/10/24 10:53:19;;;;;;;3.83;2.40;;;;;;;11.43;71.21;97155.44;5039128;28;20212;-70
2021/10/24 10:56:16;;;;;;;3.90;1.73;;;;;;;11.65;71.70;97146.94;5038174;28;20233;-70
2021/10/24 10:58:44;;;;;;;3.40;1.93;;;;;;;11.05;72.99;97148.00;5040319;28;20209;-70
2021/10/24 11:01:19;;;;;;;3.30;2.13;;;;;;;11.17;73.42;97144.09;5038983;28;20586;-71
2021/10/24 11:03:46;;;;;;;3.23;2.17;;;;;;;10.88;73.79;97147.25;5038688;28;20215;-70
2021/10/24 11:06:52;;;;;;;5.17;2.20;;;;;;;11.72;72.09;97146.13;5038183;28;20228;-71
2021/10/24 11:09:44;;;;;;;4.07;2.20;;;;;;;11.66;71.32;97148.59;5038458;28;20209;-70
2021/10/24 11:12:31;;;;;;;4.23;2.03;;;;;;;11.79;71.92;97146.31;5024122;28;20197;-70
2021/10/24 11:15:31;;;;;;;5.47;2.23;;;;;;;12.04;71.67;97145.34;5038514;28;20677;-70
2021/10/24 11:18:02;;;;;;;3.40;1.73;;;;;;;11.85;71.35;97145.66;5038378;28;20411;-70
2021/10/24 11:20:47;;;;;;;6.67;1.70;;;;;;;11.66;71.14;97145.97;5034061;28;20613;-70
2021/10/24 11:23:19;;;;;;;3.93;2.07;;;;;;;11.53;72.88;97139.47;5036212;28;20208;-70
2021/10/24 11:25:46;;;;;;;5.17;2.00;;;;;;;11.56;73.74;97134.72;5037324;28;20244;-70
2021/10/24 11:28:17;;;;;;;4.80;2.23;;;;;;;11.81;73.00;97133.75;5038301;28;20569;-70
2021/10/24 11:30:45;;;;;;;4.27;1.77;;;;;;;11.91;71.47;97140.53;5037928;28;20558;-70
2021/10/24 11:33:14;;;;;;;3.43;1.93;;;;;;;11.69;71.48;97135.88;5037869;28;20586;-70
2021/10/24 11:35:42;;;;;;;2.87;1.93;;;;;;;11.69;72.17;97130.59;5037245;28;20362;-70
2021/10/24 11:38:12;;;;;;;3.90;2.23;;;;;;;11.75;72.65;97123.88;5038227;28;20915;-70
2021/10/24 11:40:41;;;;;;;2.60;1.60;;;;;;;11.81;73.48;97133.75;5037791;28;20212;-70
2021/10/24 11:43:10;;;;;;;3.80;1.87;;;;;;;11.99;72.57;97126.50;5037690;28;20277;-70
2021/10/24 11:45:41;;;;;;;5.37;1.67;;;;;;;11.87;71.51;97123.38;5037213;28;20221;-70
2021/10/24 11:48:10;;;;;;;10.43;2.43;;;;;;;12.00;71.35;97125.53;5038122;28;20459;-70